Perkins, Oklahoma
Current Conditions -  °F | °C
As of 5:53 PM on Saturday 20 Dec 2014 (Local Time) from KSWO Reporting Station
Overcast Overcast  
Wind Chill: 39°   Ceiling: 1700
Heat Index: 44°   Visibility: 10mi
Dew Point: 37°   Wind: 9mph
Humidity: 76%   Direction: 190°S
Pressure: 30.15"   Gusts: NA
Location:  35.97°N, 97.03°W
Report Text: KSWO 202353Z 19008KT 10SM OVC017 07/03 A3015 RMK AO2 SLP210 T00670028 10106 20067 56002
Loading
Personal Weather Stations






























Interactive Weather Map New forecast layout! Learn more

10-Day Weather Forecast

Advertisements
Track Severe Weather on mobile